Holgate, Ohio
Current Conditions -  °F | °C
As of 1:53 PM on Saturday 25 Oct 2014 (Local Time) from KDFI Reporting Station
Clear Clear  
Wind Chill: 20°   Ceiling: Unl
Heat Index: 20°   Visibility: 7mi
Dew Point: 12°   Wind: 17mph
Humidity: 61%   Direction: 310°NW
Pressure: 29.86"   Gusts: 23mph
Location:  41.25°N, 84.13°W
Report Text: KDFI 251753Z AUTO 31015G20KT 7SM CLR 20/12 A2986 RMK AO2 SLP113 T02000122 10200 20128 56005
Loading
Personal Weather Stations






























Interactive Weather Map
Tropical Storm Tracking
New forecast layout! Learn more

10-Day Weather Forecast

Advertisements
Track Severe Weather on mobile